Time;durP1;ratioP1;P1;durP2;ratioP2;P2;SDS_P1;SDS_P2;PMS_P1;PMS_P2;Temp;Humidity;BMP_temperature;BMP_pressure;BME280_temperature;BME280_humidity;BME280_pressure;Samples;Min_cycle;Max_cycle;Signal;HPM_P1;HPM_P2
2023/09/14 00:00:34;;;;;;;3.97;1.88;;;14.50;99.90;;;;;;4957122;28;20050;-79
2023/09/14 00:03:00;;;;;;;7.68;2.58;;;14.40;99.90;;;;;;4990201;28;20502;-79
2023/09/14 00:05:26;;;;;;;9.23;2.00;;;14.20;99.90;;;;;;4958505;28;20093;-80
2023/09/14 00:07:51;;;;;;;7.80;2.47;;;14.40;99.90;;;;;;4990724;28;20580;-80
2023/09/14 00:10:17;;;;;;;7.80;2.28;;;;;;;;;;4959493;28;20035;-79
2023/09/14 00:12:43;;;;;;;4.47;2.33;;;14.30;99.90;;;;;;4975759;28;20109;-80
2023/09/14 00:15:09;;;;;;;5.97;2.50;;;14.30;99.90;;;;;;4959144;28;20042;-79
2023/09/14 00:17:35;;;;;;;4.75;2.30;;;14.20;99.90;;;;;;4990689;28;20039;-79
2023/09/14 00:20:00;;;;;;;4.03;2.33;;;14.30;99.90;;;;;;4991468;28;20584;-80
2023/09/14 00:22:26;;;;;;;4.38;2.22;;;14.30;99.90;;;;;;4991237;28;20049;-79
2023/09/14 00:24:52;;;;;;;5.20;2.40;;;;;;;;;;4993094;28;20051;-79
2023/09/14 00:27:18;;;;;;;5.65;2.53;;;;;;;;;;4978380;28;20690;-79
2023/09/14 00:29:46;;;;;;;5.65;2.50;;;14.00;99.90;;;;;;4978774;28;20039;-79
2023/09/14 00:32:12;;;;;;;3.88;2.40;;;14.10;99.90;;;;;;4995034;28;20082;-79
2023/09/14 00:34:37;;;;;;;3.75;2.17;;;14.10;99.90;;;;;;4994758;28;20514;-79
2023/09/14 00:37:04;;;;;;;5.45;2.40;;;14.00;99.90;;;;;;4994648;28;20039;-79
2023/09/14 00:39:30;;;;;;;14.48;2.90;;;14.30;99.90;;;;;;4994363;28;20047;-79
2023/09/14 00:41:56;;;;;;;4.72;2.58;;;14.20;99.90;;;;;;4994715;28;20047;-79
2023/09/14 00:44:21;;;;;;;3.97;2.47;;;14.30;99.90;;;;;;4961824;28;20043;-80
2023/09/14 00:46:47;;;;;;;4.47;2.58;;;14.10;99.90;;;;;;4993770;28;20038;-79
2023/09/14 00:49:14;;;;;;;3.05;2.20;;;14.20;99.90;;;;;;4961969;28;20035;-80
2023/09/14 00:51:40;;;;;;;4.18;2.40;;;14.00;99.90;;;;;;4994315;28;20521;-80
2023/09/14 00:54:06;;;;;;;9.80;3.95;;;14.10;99.90;;;;;;4961415;28;20046;-80
2023/09/14 00:56:31;;;;;;;7.00;2.65;;;14.00;99.90;;;;;;4963606;28;20175;-79
2023/09/14 00:58:58;;;;;;;6.57;2.70;;;14.10;99.90;;;;;;4996843;28;20536;-79
2023/09/14 01:01:24;;;;;;;7.75;2.67;;;13.90;99.90;;;;;;4964246;28;20042;-80
2023/09/14 01:03:50;;;;;;;6.47;2.50;;;;;;;;;;4963539;28;20110;-79
2023/09/14 01:06:16;;;;;;;3.75;2.67;;;;;;;;;;4978868;28;20086;-79
2023/09/14 01:08:42;;;;;;;3.67;2.40;;;14.10;99.90;;;;;;4976686;28;20049;-80
2023/09/14 01:11:08;;;;;;;5.53;2.40;;;14.10;99.90;;;;;;4960374;28;20089;-79
2023/09/14 01:14:08;;;;;;;5.78;3.20;;;14.20;99.90;;;;;;4992907;28;20121;-80
2023/09/14 01:16:49;;;;;;;4.28;2.47;;;14.00;99.90;;;;;;4993613;28;20394;-80
2023/09/14 01:19:26;;;;;;;4.65;2.47;;;14.00;99.90;;;;;;4993374;28;20121;-79
2023/09/14 01:22:18;;;;;;;4.47;2.50;;;14.10;99.90;;;;;;4993174;28;20157;-79
2023/09/14 01:24:54;;;;;;;3.47;2.00;;;13.80;99.90;;;;;;4975381;28;20051;-79
2023/09/14 01:27:20;;;;;;;4.18;2.20;;;14.00;99.90;;;;;;4976107;28;20576;-79
2023/09/14 01:29:46;;;;;;;7.32;2.50;;;13.90;99.90;;;;;;4976540;28;20043;-79
2023/09/14 01:32:12;;;;;;;4.82;2.63;;;13.70;99.90;;;;;;4976745;28;20043;-80
2023/09/14 01:34:41;;;;;;;4.55;2.25;;;14.00;99.90;;;;;;4976496;28;20050;-79
2023/09/14 01:37:07;;;;;;;5.35;2.78;;;13.70;99.90;;;;;;4992463;28;20038;-80
2023/09/14 01:39:34;;;;;;;5.68;2.65;;;13.70;99.90;;;;;;4992957;28;20485;-79
2023/09/14 01:42:01;;;;;;;5.50;2.50;;;13.50;99.90;;;;;;4993541;28;20050;-79
2023/09/14 01:44:27;;;;;;;7.25;2.30;;;13.60;99.90;;;;;;4993458;28;20089;-79
2023/09/14 01:46:54;;;;;;;6.05;2.55;;;13.80;99.90;;;;;;4992782;28;20038;-79
2023/09/14 01:49:19;;;;;;;4.25;2.38;;;13.60;99.90;;;;;;4993598;28;20038;-79
2023/09/14 01:51:45;;;;;;;4.78;2.22;;;13.70;99.90;;;;;;4992990;28;20553;-79
2023/09/14 01:54:11;;;;;;;5.05;2.40;;;13.40;99.90;;;;;;4992751;28;20042;-79
2023/09/14 01:56:37;;;;;;;4.32;2.53;;;;;;;;;;4976509;28;20096;-79
2023/09/14 01:59:03;;;;;;;4.95;2.47;;;13.50;99.90;;;;;;4975993;28;20043;-79
2023/09/14 02:01:29;;;;;;;5.13;2.72;;;13.40;99.90;;;;;;4992554;28;20049;-79
2023/09/14 02:03:55;;;;;;;6.63;2.67;;;;;;;;;;4976108;28;20069;-79
2023/09/14 02:06:21;;;;;;;6.38;2.50;;;;;;;;;;4975724;28;20121;-79
2023/09/14 02:08:47;;;;;;;6.05;2.50;;;13.30;99.90;;;;;;4976247;28;20078;-79
2023/09/14 02:11:13;;;;;;;4.40;2.35;;;13.30;99.90;;;;;;4992854;28;20126;-79
2023/09/14 02:13:39;;;;;;;2.95;2.22;;;13.30;99.90;;;;;;4992476;28;20086;-79
2023/09/14 02:16:06;;;;;;;4.47;1.92;;;13.40;99.90;;;;;;4992256;28;20499;-79
2023/09/14 02:18:32;;;;;;;4.43;2.60;;;13.20;99.90;;;;;;4991959;28;20069;-79
2023/09/14 02:20:58;;;;;;;4.07;2.38;;;;;;;;;;4975696;28;20042;-79
2023/09/14 02:23:24;;;;;;;4.47;2.28;;;;;;;;;;4975829;28;20062;-79
2023/09/14 02:25:50;;;;;;;3.47;2.22;;;13.20;99.90;;;;;;4975355;28;20039;-79
2023/09/14 02:28:19;;;;;;;3.90;2.25;;;;;;;;;;4991677;28;20042;-79
2023/09/14 02:30:45;;;;;;;4.72;2.40;;;13.20;99.90;;;;;;4975569;28;20117;-79
2023/09/14 02:33:11;;;;;;;5.03;2.55;;;13.30;99.90;;;;;;4991314;28;20043;-79
2023/09/14 02:35:39;;;;;;;5.15;2.33;;;13.30;99.90;;;;;;4990810;28;20125;-79
2023/09/14 02:38:05;;;;;;;3.75;2.17;;;13.20;99.90;;;;;;4974598;28;20074;-79
2023/09/14 02:40:31;;;;;;;4.82;1.88;;;13.20;99.90;;;;;;4958672;28;20567;-79
2023/09/14 02:42:57;;;;;;;4.43;2.20;;;13.20;99.90;;;;;;4991050;28;20043;-79
2023/09/14 02:45:24;;;;;;;3.72;2.10;;;13.20;99.90;;;;;;4990900;28;20474;-79
2023/09/14 02:47:49;;;;;;;5.45;2.60;;;12.90;99.90;;;;;;4990558;28;20442;-79
2023/09/14 02:50:15;;;;;;;6.70;2.00;;;13.00;99.90;;;;;;4988258;28;20098;-80
2023/09/14 02:52:41;;;;;;;4.15;2.10;;;;;;;;;;4990066;28;20038;-79
2023/09/14 02:55:07;;;;;;;3.15;2.05;;;13.00;99.90;;;;;;4974203;28;20053;-79
2023/09/14 02:57:33;;;;;;;2.78;2.17;;;;;;;;;;4973595;28;20042;-79
2023/09/14 02:59:59;;;;;;;4.20;2.53;;;;;;;;;;4974812;28;20065;-79
2023/09/14 03:02:25;;;;;;;3.10;2.15;;;;;;;;;;4974701;28;20049;-79
2023/09/14 03:04:51;;;;;;;2.75;2.15;;;;;;;;;;4974510;28;20524;-79
2023/09/14 03:07:17;;;;;;;4.90;2.22;;;;;;;;;;4973913;28;20039;-79
2023/09/14 03:09:43;;;;;;;4.03;1.65;;;12.90;99.90;;;;;;4974505;28;20050;-79
2023/09/14 03:12:09;;;;;;;2.70;2.28;;;12.90;99.90;;;;;;4990842;28;20414;-79
2023/09/14 03:14:34;;;;;;;4.30;2.00;;;12.90;99.90;;;;;;4990059;28;20035;-79
2023/09/14 03:17:01;;;;;;;2.80;1.52;;;;;;;;;;4990130;28;20050;-79
2023/09/14 03:19:27;;;;;;;3.05;1.73;;;12.80;99.90;;;;;;4975401;28;20043;-79
2023/09/14 03:21:52;;;;;;;9.48;2.33;;;12.70;99.90;;;;;;4989830;28;20035;-79
2023/09/14 03:24:18;;;;;;;3.40;2.40;;;12.70;99.90;;;;;;4990077;28;20085;-79
2023/09/14 03:26:46;;;;;;;3.03;1.70;;;;;;;;;;4973451;28;20124;-79
2023/09/14 03:29:12;;;;;;;5.13;2.33;;;12.80;99.90;;;;;;4973967;28;20039;-79
2023/09/14 03:31:37;;;;;;;3.42;1.92;;;12.60;99.90;;;;;;4990017;28;20035;-80
2023/09/14 03:34:05;;;;;;;5.63;2.10;;;12.60;99.90;;;;;;4989736;28;20054;-80
2023/09/14 03:36:31;;;;;;;3.13;1.80;;;;;;;;;;4989713;28;20078;-80
2023/09/14 03:38:57;;;;;;;3.50;1.77;;;;;;;;;;4973276;28;20093;-79
2023/09/14 03:41:22;;;;;;;5.93;1.90;;;12.70;99.90;;;;;;4974163;28;20178;-79
2023/09/14 03:43:48;;;;;;;4.15;2.15;;;12.60;99.90;;;;;;4990558;28;20047;-79
2023/09/14 03:46:15;;;;;;;3.50;2.35;;;12.70;99.90;;;;;;4958206;28;20039;-79
2023/09/14 03:48:40;;;;;;;5.32;1.70;;;12.60;99.90;;;;;;4978654;28;20410;-79
2023/09/14 03:51:06;;;;;;;6.97;1.77;;;12.60;99.90;;;;;;4995394;28;20038;-79
2023/09/14 03:53:32;;;;;;;5.22;1.70;;;12.50;99.90;;;;;;4992701;28;20039;-79
2023/09/14 03:55:59;;;;;;;2.53;2.03;;;12.50;99.90;;;;;;4990564;28;20039;-79
2023/09/14 03:58:26;;;;;;;2.63;1.80;;;12.50;99.90;;;;;;4990375;28;20099;-79
2023/09/14 04:00:52;;;;;;;2.88;2.42;;;;;;;;;;4994131;28;20034;-79
2023/09/14 04:03:18;;;;;;;3.95;1.65;;;12.30;99.90;;;;;;4978719;28;20053;-79
2023/09/14 04:05:44;;;;;;;6.07;2.38;;;12.30;99.90;;;;;;4994331;28;20679;-79
2023/09/14 04:08:10;;;;;;;3.67;1.70;;;;;;;;;;4995030;28;20407;-79
2023/09/14 04:10:37;;;;;;;3.58;1.77;;;12.40;99.90;;;;;;4980828;28;20074;-79
2023/09/14 04:13:29;;;;;;;4.78;1.90;;;12.30;99.90;;;;;;4997280;28;20039;-79
2023/09/14 04:15:56;;;;;;;3.30;1.75;;;12.30;99.90;;;;;;4996991;28;20107;-79
2023/09/14 04:18:22;;;;;;;2.80;1.52;;;12.30;99.90;;;;;;4996092;28;20468;-79
2023/09/14 04:20:48;;;;;;;2.72;1.50;;;12.30;99.90;;;;;;4996663;28;20074;-79
2023/09/14 04:23:14;;;;;;;4.43;1.80;;;12.20;99.90;;;;;;4981252;28;20125;-79
2023/09/14 04:25:44;;;;;;;3.08;1.70;;;12.30;99.90;;;;;;4995756;28;20078;-80
2023/09/14 04:28:14;;;;;;;2.67;1.50;;;12.20;99.90;;;;;;4979032;28;20039;-79
2023/09/14 04:30:47;;;;;;;4.97;2.53;;;12.20;99.90;;;;;;4996116;28;20053;-79
2023/09/14 04:33:14;;;;;;;4.30;1.70;;;12.30;99.90;;;;;;4995877;28;20043;-79
2023/09/14 04:35:40;;;;;;;4.28;1.80;;;;;;;;;;4995096;28;20129;-79
2023/09/14 04:38:06;;;;;;;5.05;1.90;;;12.10;99.90;;;;;;4979079;28;20042;-79
2023/09/14 04:40:36;;;;;;;3.95;1.90;;;12.10;99.90;;;;;;4995748;28;20066;-79
2023/09/14 04:43:02;;;;;;;3.45;1.92;;;12.20;99.90;;;;;;4980093;28;20134;-79
2023/09/14 04:45:28;;;;;;;3.17;1.70;;;;;;;;;;4995355;28;20522;-79
2023/09/14 04:47:54;;;;;;;4.53;2.08;;;;;;;;;;4979353;28;20096;-79
2023/09/14 04:50:20;;;;;;;3.10;1.55;;;;;;;;;;4979259;28;20077;-79
2023/09/14 04:52:46;;;;;;;6.25;1.67;;;;;;;;;;4979296;28;20391;-79
2023/09/14 04:55:12;;;;;;;6.30;1.73;;;;;;;;;;4978385;28;20057;-79
2023/09/14 04:57:38;;;;;;;5.35;1.73;;;;;;;;;;4978092;28;20519;-79
2023/09/14 05:00:05;;;;;;;5.10;1.85;;;12.10;99.90;;;;;;4978746;28;20043;-79
2023/09/14 05:02:31;;;;;;;4.65;1.60;;;11.90;99.90;;;;;;4978939;28;20046;-79
2023/09/14 05:04:57;;;;;;;3.13;1.63;;;;;;;;;;4984457;28;20045;-79
2023/09/14 05:07:23;;;;;;;2.53;1.55;;;;;;;;;;4966880;28;20043;-79
2023/09/14 05:09:49;;;;;;;6.38;2.05;;;;;;;;;;4970084;28;20047;-79
2023/09/14 05:12:15;;;;;;;3.20;1.60;;;;;;;;;;4966381;28;20106;-79
2023/09/14 05:14:41;;;;;;;8.00;2.28;;;;;;;;;;4966496;28;20042;-79
2023/09/14 05:17:07;;;;;;;3.17;1.65;;;;;;;;;;4967322;28;20043;-79
2023/09/14 05:19:33;;;;;;;3.67;1.52;;;;;;;;;;4965369;28;20142;-79
2023/09/14 05:21:59;;;;;;;4.88;2.10;;;;;;;;;;4959628;28;20106;-79
2023/09/14 05:24:25;;;;;;;4.60;1.80;;;12.00;99.90;;;;;;4956366;29;20071;-79
2023/09/14 05:26:52;;;;;;;7.95;2.30;;;;;;;;;;4967140;28;20565;-79
2023/09/14 05:29:18;;;;;;;4.63;2.22;;;12.10;99.90;;;;;;4967245;28;20070;-79
2023/09/14 05:31:44;;;;;;;6.70;2.10;;;;;;;;;;4982523;28;20507;-80
2023/09/14 05:34:12;;;;;;;4.15;1.83;;;12.20;99.90;;;;;;4969429;28;20491;-79
2023/09/14 05:36:38;;;;;;;6.15;2.28;;;;;;;;;;4975771;28;20125;-79
2023/09/14 05:39:04;;;;;;;3.38;2.10;;;12.30;99.90;;;;;;4962311;28;20679;-79
2023/09/14 05:41:30;;;;;;;4.93;2.25;;;;;;;;;;4972009;28;20133;-79
2023/09/14 05:43:56;;;;;;;3.78;2.25;;;;;;;;;;4971920;28;20137;-79
2023/09/14 05:46:21;;;;;;;4.82;2.03;;;12.40;99.90;;;;;;4989344;28;20089;-79
2023/09/14 05:48:48;;;;;;;5.45;2.55;;;;;;;;;;4954715;28;20031;-78
2023/09/14 05:51:14;;;;;;;7.70;2.55;;;;;;;;;;4971749;28;20046;-79
2023/09/14 05:53:40;;;;;;;4.28;2.40;;;;;;;;;;4971414;28;20035;-79
2023/09/14 05:56:06;;;;;;;6.43;2.53;;;;;;;;;;4977148;28;20038;-79
2023/09/14 05:58:32;;;;;;;6.55;2.47;;;;;;;;;;4972553;28;20051;-79
2023/09/14 06:01:00;;;;;;;7.35;2.28;;;12.50;99.90;;;;;;4974302;28;20473;-79
2023/09/14 06:03:26;;;;;;;3.83;2.58;;;;;;;;;;4965859;28;20068;-80
2023/09/14 06:05:51;;;;;;;4.03;2.20;;;12.60;99.90;;;;;;4979886;28;20042;-79
2023/09/14 06:08:17;;;;;;;5.47;2.45;;;;;;;;;;4987927;28;20046;-80
2023/09/14 06:10:43;;;;;;;6.78;2.50;;;12.60;99.90;;;;;;4990786;28;20407;-79
2023/09/14 06:13:09;;;;;;;12.73;4.35;;;12.60;99.90;;;;;;4987487;28;20035;-79
2023/09/14 06:15:34;;;;;;;76.25;10.13;;;12.70;99.90;;;;;;4985925;28;20069;-78
2023/09/14 06:18:00;;;;;;;63.63;8.75;;;;;;;;;;4986890;28;20046;-77
2023/09/14 06:20:26;;;;;;;72.43;9.32;;;;;;;;;;4986383;28;20047;-78
2023/09/14 06:22:52;;;;;;;56.83;8.32;;;;;;;;;;4986370;28;20517;-78
2023/09/14 06:25:20;;;;;;;23.92;5.40;;;;;;;;;;4987299;28;20043;-78
2023/09/14 06:27:45;;;;;;;21.90;4.18;;;13.10;99.90;;;;;;4987096;28;20050;-78
2023/09/14 06:30:11;;;;;;;66.85;9.27;;;13.10;99.90;;;;;;4988000;28;20035;-78
2023/09/14 06:32:37;;;;;;;69.10;10.15;;;12.90;99.90;;;;;;4971667;28;20094;-79
2023/09/14 06:35:03;;;;;;;73.40;8.85;;;13.10;99.90;;;;;;4987403;28;20101;-78
2023/09/14 06:37:29;;;;;;;18.30;4.03;;;;;;;;;;4987313;28;20469;-79
2023/09/14 06:39:56;;;;;;;11.35;2.63;;;;;;;;;;4987806;28;20074;-78
2023/09/14 06:42:22;;;;;;;8.35;2.45;;;13.20;99.90;;;;;;4987733;28;20174;-78
2023/09/14 06:44:47;;;;;;;10.75;3.45;;;13.50;99.90;;;;;;4971301;28;20526;-78
2023/09/14 06:47:13;;;;;;;12.20;3.22;;;;;;;;;;4971343;28;20039;-78
2023/09/14 06:49:39;;;;;;;10.73;2.00;;;;;;;;;;4988141;28;20419;-78
2023/09/14 06:52:05;;;;;;;14.20;2.53;;;13.60;99.90;;;;;;4986656;28;20276;-76
2023/09/14 06:54:31;;;;;;;15.50;3.55;;;13.80;99.90;;;;;;4985369;28;20035;-76
2023/09/14 06:56:56;;;;;;;8.45;2.28;;;13.80;99.90;;;;;;4985024;28;20046;-76
2023/09/14 06:59:23;;;;;;;8.50;2.88;;;13.90;99.90;;;;;;4986262;28;20075;-77
2023/09/14 07:01:49;;;;;;;3.90;1.55;;;14.10;99.90;;;;;;4995486;28;20039;-78
2023/09/14 07:04:14;;;;;;;5.40;2.00;;;14.10;99.90;;;;;;4993091;28;20043;-78
2023/09/14 07:06:41;;;;;;;6.40;1.98;;;;;;;;;;4971046;28;20039;-78
2023/09/14 07:09:07;;;;;;;7.80;1.67;;;14.40;99.90;;;;;;4986531;28;20043;-78
2023/09/14 07:11:34;;;;;;;5.07;1.33;;;14.50;99.90;;;;;;4970752;28;20035;-78
2023/09/14 07:14:00;;;;;;;8.95;1.98;;;14.40;99.90;;;;;;4986858;28;20055;-78
2023/09/14 07:16:26;;;;;;;7.03;2.00;;;14.40;99.90;;;;;;4970966;28;20043;-78
2023/09/14 07:18:52;;;;;;;7.00;1.35;;;14.80;99.90;;;;;;4970264;28;20049;-78
2023/09/14 07:21:18;;;;;;;9.68;2.00;;;;;;;;;;4970107;28;20043;-78
2023/09/14 07:23:43;;;;;;;8.23;2.22;;;15.00;99.90;;;;;;4987130;28;20084;-79
2023/09/14 07:26:10;;;;;;;6.78;3.08;;;;;;;;;;4986710;28;20035;-79
2023/09/14 07:28:37;;;;;;;8.48;2.33;;;15.40;99.90;;;;;;4986503;28;20055;-79
2023/09/14 07:31:04;;;;;;;8.68;2.03;;;15.50;99.90;;;;;;4970287;28;20043;-78
2023/09/14 07:33:30;;;;;;;4.75;1.88;;;15.50;99.90;;;;;;4954222;28;20582;-79
2023/09/14 07:35:56;;;;;;;4.30;1.40;;;15.90;99.90;;;;;;4970311;28;20082;-79
2023/09/14 07:38:22;;;;;;;8.13;1.95;;;;;;;;;;4968441;28;20058;-77
2023/09/14 07:40:48;;;;;;;5.63;1.40;;;;;;;;;;4984763;28;20126;-76
2023/09/14 07:43:14;;;;;;;5.43;1.50;;;16.10;99.90;;;;;;4984774;28;20054;-77
2023/09/14 07:45:40;;;;;;;4.30;1.30;;;16.50;99.90;;;;;;4968298;28;20170;-77
2023/09/14 07:48:07;;;;;;;4.85;1.42;;;16.60;99.90;;;;;;4968563;28;20126;-77
2023/09/14 07:50:40;;;;;;;3.92;1.38;;;16.70;99.90;;;;;;4969391;28;20044;-79
2023/09/14 07:53:09;;;;;;;10.68;2.40;;;16.90;99.90;;;;;;4955072;28;20078;-79
2023/09/14 07:55:36;;;;;;;6.43;1.40;;;17.10;99.90;;;;;;4969625;28;20043;-79
2023/09/14 07:58:02;;;;;;;4.60;1.50;;;17.40;99.90;;;;;;4969397;28;20035;-78
2023/09/14 08:00:28;;;;;;;3.67;1.20;;;17.80;99.90;;;;;;4969719;28;20051;-79
2023/09/14 08:02:54;;;;;;;5.57;1.55;;;17.70;99.90;;;;;;4985986;28;20051;-79
2023/09/14 08:05:19;;;;;;;4.72;1.20;;;17.80;99.90;;;;;;4968928;28;20047;-79
2023/09/14 08:07:45;;;;;;;6.93;1.83;;;18.20;99.90;;;;;;4969339;28;20039;-79
2023/09/14 08:10:11;;;;;;;4.57;1.20;;;18.30;99.90;;;;;;4969709;28;20039;-79
2023/09/14 08:12:37;;;;;;;4.25;1.48;;;;;;;;;;4969604;28;20043;-79
2023/09/14 08:15:06;;;;;;;4.60;1.35;;;18.70;99.90;;;;;;4985509;28;20126;-78
2023/09/14 08:17:32;;;;;;;6.03;2.05;;;18.50;99.90;;;;;;4985272;28;20083;-79
2023/09/14 08:19:58;;;;;;;9.15;2.13;;;18.70;99.90;;;;;;4937021;29;20086;-78
2023/09/14 08:22:25;;;;;;;2.83;1.40;;;18.50;99.90;;;;;;4969632;28;20048;-78
2023/09/14 08:24:51;;;;;;;9.32;2.10;;;18.50;99.90;;;;;;4969679;28;20043;-79
2023/09/14 08:27:17;;;;;;;3.05;1.60;;;18.70;99.90;;;;;;4986281;28;20553;-78
2023/09/14 08:29:43;;;;;;;6.38;1.60;;;18.80;99.90;;;;;;4986012;28;20039;-79
2023/09/14 08:32:13;;;;;;;5.45;1.83;;;18.60;99.90;;;;;;4969570;28;20554;-77
2023/09/14 08:34:38;;;;;;;6.43;2.40;;;18.90;99.90;;;;;;4976025;28;20047;-77
2023/09/14 08:37:08;;;;;;;7.53;1.50;;;19.00;99.90;;;;;;4975801;28;20047;-76
2023/09/14 08:39:33;;;;;;;4.38;1.67;;;19.00;99.90;;;;;;4974008;28;20191;-77
2023/09/14 08:41:59;;;;;;;7.65;2.10;;;18.90;99.90;;;;;;4970029;28;20518;-78
2023/09/14 08:44:26;;;;;;;6.60;1.63;;;18.90;99.90;;;;;;4987334;28;20126;-79
2023/09/14 08:46:53;;;;;;;5.05;1.70;;;18.90;99.90;;;;;;4970885;28;20039;-76
2023/09/14 08:49:21;;;;;;;7.47;2.05;;;18.90;99.90;;;;;;4971500;28;20062;-77
2023/09/14 08:51:50;;;;;;;7.88;1.92;;;19.10;99.90;;;;;;4971729;28;20046;-77
2023/09/14 08:54:17;;;;;;;8.65;1.70;;;19.20;99.90;;;;;;4971361;28;20043;-77
2023/09/14 08:56:43;;;;;;;7.60;1.63;;;19.20;99.90;;;;;;4971209;28;20070;-77
2023/09/14 08:59:11;;;;;;;12.25;2.92;;;19.30;99.90;;;;;;4971033;28;20138;-77
2023/09/14 09:01:37;;;;;;;6.45;1.75;;;;;;;;;;4955221;29;20093;-77
2023/09/14 09:04:03;;;;;;;4.70;1.35;;;19.40;99.90;;;;;;4987526;28;20047;-77
2023/09/14 09:06:31;;;;;;;6.05;2.47;;;19.50;99.90;;;;;;4938991;29;20517;-76
2023/09/14 09:08:59;;;;;;;4.53;1.55;;;19.60;99.90;;;;;;4987081;28;20039;-77
2023/09/14 09:11:24;;;;;;;6.50;1.58;;;19.80;99.90;;;;;;4987199;28;20040;-77
2023/09/14 09:13:50;;;;;;;5.97;1.67;;;19.90;99.90;;;;;;4987060;28;20399;-77
2023/09/14 09:16:16;;;;;;;8.38;2.08;;;20.10;99.90;;;;;;4986972;28;20043;-77
2023/09/14 09:19:05;;;;;;;15.20;3.45;;;20.10;99.90;;;;;;4970772;28;20094;-77
2023/09/14 09:21:32;;;;;;;8.57;1.65;;;20.20;99.90;;;;;;4989032;28;20070;-79
2023/09/14 09:24:00;;;;;;;9.50;2.03;;;20.20;99.90;;;;;;4973128;28;20047;-79
2023/09/14 09:26:33;;;;;;;6.72;1.80;;;19.90;99.90;;;;;;4971725;28;20071;-79
2023/09/14 09:28:58;;;;;;;9.23;1.80;;;20.10;99.90;;;;;;4988341;28;20035;-78
2023/09/14 09:31:43;;;;;;;4.90;1.40;;;20.40;99.90;;;;;;4971984;28;20051;-79
2023/09/14 09:34:10;;;;;;;8.60;1.60;;;20.40;99.90;;;;;;4971892;28;20043;-79
2023/09/14 09:36:37;;;;;;;10.07;1.60;;;20.60;99.90;;;;;;4988051;28;20407;-79
2023/09/14 09:39:06;;;;;;;8.10;1.60;;;20.80;99.90;;;;;;4971390;28;20078;-79
2023/09/14 09:41:35;;;;;;;8.43;2.80;;;20.00;99.90;;;;;;4971705;28;20134;-79
2023/09/14 09:44:11;;;;;;;7.38;1.83;;;20.40;99.90;;;;;;4971495;28;20676;-79
2023/09/14 09:46:37;;;;;;;5.38;1.77;;;20.20;99.90;;;;;;4971636;28;20431;-79
2023/09/14 09:49:16;;;;;;;5.95;1.70;;;21.30;99.90;;;;;;4971321;28;20049;-78
2023/09/14 09:51:43;;;;;;;8.05;1.48;;;21.50;99.90;;;;;;4971685;28;20114;-79
2023/09/14 09:54:08;;;;;;;6.45;1.85;;;20.60;99.90;;;;;;4971534;28;20418;-79
2023/09/14 09:56:35;;;;;;;7.38;2.10;;;20.50;99.90;;;;;;4970206;28;20039;-79
2023/09/14 09:59:03;;;;;;;8.65;1.83;;;20.20;99.90;;;;;;4971040;28;20047;-79
2023/09/14 10:01:29;;;;;;;11.50;2.00;;;20.60;99.90;;;;;;4971450;28;20411;-79
2023/09/14 10:03:56;;;;;;;7.32;2.00;;;20.90;99.90;;;;;;4987268;28;20053;-79
2023/09/14 10:06:21;;;;;;;9.98;2.05;;;20.80;99.90;;;;;;4971494;28;20072;-78
2023/09/14 10:08:56;;;;;;;8.02;2.15;;;20.60;99.90;;;;;;4987182;28;20071;-78
2023/09/14 10:11:24;;;;;;;6.32;1.50;;;20.90;99.90;;;;;;4971526;28;20098;-79
2023/09/14 10:13:51;;;;;;;5.35;1.77;;;21.00;99.90;;;;;;4971267;28;20094;-79
2023/09/14 10:16:22;;;;;;;7.68;1.92;;;20.80;99.90;;;;;;4987339;28;20046;-79
2023/09/14 10:18:52;;;;;;;9.43;2.10;;;20.80;99.90;;;;;;4971067;28;20031;-79
2023/09/14 10:21:20;;;;;;;9.80;1.90;;;20.40;99.90;;;;;;4971169;28;20047;-79
2023/09/14 10:23:49;;;;;;;7.45;2.28;;;20.50;99.90;;;;;;4970989;28;20043;-79
2023/09/14 10:26:15;;;;;;;4.72;2.17;;;21.60;99.90;;;;;;4970728;28;20039;-79
2023/09/14 10:28:41;;;;;;;4.50;1.70;;;20.50;99.90;;;;;;4987302;28;20411;-78
2023/09/14 10:31:09;;;;;;;7.53;2.20;;;21.00;99.90;;;;;;4971005;28;20093;-79
2023/09/14 10:33:37;;;;;;;7.82;2.05;;;20.70;99.90;;;;;;4970665;28;20522;-78
2023/09/14 10:36:04;;;;;;;5.78;1.85;;;20.80;99.90;;;;;;4986492;28;20511;-79
2023/09/14 10:38:32;;;;;;;6.82;2.00;;;20.70;99.90;;;;;;4986789;28;20078;-79
2023/09/14 10:40:58;;;;;;;9.48;2.55;;;20.40;99.90;;;;;;4970720;28;20086;-78
2023/09/14 10:43:24;;;;;;;9.38;2.53;;;21.60;99.90;;;;;;4970639;28;20085;-79
2023/09/14 10:45:58;;;;;;;4.75;1.70;;;20.30;99.90;;;;;;4970974;28;20518;-79
2023/09/14 10:48:29;;;;;;;12.48;2.47;;;20.50;99.90;;;;;;4986415;28;20059;-79
2023/09/14 10:51:00;;;;;;;7.03;1.92;;;20.40;99.90;;;;;;4971017;28;20457;-79
2023/09/14 10:53:28;;;;;;;5.68;1.73;;;20.40;99.90;;;;;;4971268;28;20067;-79
2023/09/14 10:55:53;;;;;;;7.55;2.00;;;20.70;99.90;;;;;;4987044;28;20431;-80
2023/09/14 10:58:20;;;;;;;3.92;1.70;;;21.30;99.90;;;;;;4970471;28;20047;-79
2023/09/14 11:00:47;;;;;;;7.18;2.10;;;20.40;99.90;;;;;;4986643;28;20122;-79
2023/09/14 11:03:13;;;;;;;5.97;1.70;;;20.40;99.90;;;;;;4970395;28;20187;-78
2023/09/14 11:05:49;;;;;;;7.22;1.95;;;20.50;99.90;;;;;;4986186;28;20043;-79
2023/09/14 11:08:15;;;;;;;5.07;1.70;;;20.00;99.90;;;;;;4969804;28;20050;-78
2023/09/14 11:11:07;;;;;;;8.65;1.73;;;19.80;99.90;;;;;;4987243;28;20395;-79
2023/09/14 11:13:33;;;;;;;10.75;3.85;;;19.90;99.90;;;;;;4952101;28;20110;-79
2023/09/14 11:16:16;;;;;;;5.97;1.88;;;20.70;99.90;;;;;;4971047;28;20050;-79
2023/09/14 11:18:45;;;;;;;6.82;2.20;;;20.10;99.90;;;;;;4969954;28;20190;-79
2023/09/14 11:21:32;;;;;;;10.27;2.33;;;21.20;99.90;;;;;;4953889;29;20043;-79
2023/09/14 11:23:59;;;;;;;12.50;3.30;;;20.30;99.90;;;;;;4954005;29;20507;-79
2023/09/14 11:26:33;;;;;;;7.88;1.90;;;20.20;99.90;;;;;;4986316;28;20047;-79
2023/09/14 11:28:59;;;;;;;7.82;2.90;;;20.20;99.90;;;;;;4970465;28;20046;-79
2023/09/14 11:31:29;;;;;;;8.77;1.98;;;20.10;99.90;;;;;;4970420;28;20075;-79
2023/09/14 11:33:56;;;;;;;4.80;2.10;;;20.10;99.90;;;;;;4986364;28;20040;-79
2023/09/14 11:36:26;;;;;;;5.45;1.70;;;21.20;99.90;;;;;;4970268;28;20649;-79
2023/09/14 11:38:52;;;;;;;5.32;1.90;;;20.90;99.90;;;;;;4970269;28;20039;-79
2023/09/14 11:41:47;;;;;;;8.38;2.10;;;21.80;99.90;;;;;;4938088;29;20046;-78
2023/09/14 11:44:13;;;;;;;5.03;2.38;;;21.60;99.90;;;;;;4945608;29;20062;-79
2023/09/14 11:46:39;;;;;;;7.55;2.45;;;21.10;99.90;;;;;;4937783;29;20039;-78
2023/09/14 11:49:05;;;;;;;6.85;2.17;;;21.20;99.90;;;;;;4970442;28;20043;-78
2023/09/14 11:51:32;;;;;;;8.10;2.05;;;20.90;99.90;;;;;;4970835;28;20031;-79
2023/09/14 11:53:59;;;;;;;8.18;2.22;;;21.00;99.90;;;;;;4970769;28;20072;-79
2023/09/14 11:56:35;;;;;;;6.90;1.85;;;20.80;99.90;;;;;;4970640;28;20039;-78
2023/09/14 11:59:02;;;;;;;7.95;2.63;;;20.60;99.90;;;;;;4970283;28;20043;-79
2023/09/14 12:01:31;;;;;;;9.57;2.55;;;20.70;99.90;;;;;;4971008;28;20053;-79
2023/09/14 12:03:58;;;;;;;9.32;2.22;;;20.60;99.90;;;;;;4980129;28;20035;-79
2023/09/14 12:06:27;;;;;;;6.10;2.20;;;20.40;99.90;;;;;;4981137;28;20043;-79
2023/09/14 12:08:53;;;;;;;8.35;2.58;;;21.00;99.90;;;;;;4975651;28;20114;-79
2023/09/14 12:11:21;;;;;;;6.85;2.17;;;21.10;99.90;;;;;;4969764;28;20134;-79
2023/09/14 12:13:55;;;;;;;5.60;1.92;;;21.00;99.90;;;;;;4969836;28;20090;-79
2023/09/14 12:16:25;;;;;;;5.88;2.10;;;21.00;99.90;;;;;;4969428;28;20063;-79
2023/09/14 12:18:52;;;;;;;4.40;1.90;;;20.80;99.90;;;;;;4969225;28;20035;-79
2023/09/14 12:21:19;;;;;;;9.77;2.17;;;21.20;99.90;;;;;;4987401;28;20043;-79
2023/09/14 12:23:48;;;;;;;6.53;2.95;;;20.90;99.90;;;;;;4973256;28;20086;-78
2023/09/14 12:26:19;;;;;;;9.52;2.17;;;21.50;99.90;;;;;;4973189;28;20039;-79
2023/09/14 12:28:49;;;;;;;5.93;1.83;;;21.40;99.90;;;;;;4989612;28;20084;-79
2023/09/14 12:31:15;;;;;;;8.73;2.42;;;22.60;99.90;;;;;;4973144;28;20499;-79
2023/09/14 12:33:42;;;;;;;8.88;2.92;;;22.00;99.90;;;;;;4973434;28;20062;-79
2023/09/14 12:36:10;;;;;;;7.70;2.50;;;23.10;99.90;;;;;;4989535;28;20055;-79
2023/09/14 12:38:36;;;;;;;6.70;2.58;;;22.20;99.90;;;;;;4972957;28;20058;-79
2023/09/14 12:41:01;;;;;;;10.77;2.72;;;23.20;99.90;;;;;;4972899;28;20414;-79
2023/09/14 12:43:27;;;;;;;6.45;2.95;;;22.10;99.90;;;;;;4973446;28;20039;-79
2023/09/14 12:45:53;;;;;;;8.38;2.42;;;22.30;99.90;;;;;;4972481;28;20062;-79
2023/09/14 12:48:18;;;;;;;7.13;2.35;;;22.20;99.90;;;;;;4988943;28;20079;-79
2023/09/14 12:50:44;;;;;;;3.83;2.25;;;22.20;99.90;;;;;;4972865;28;20043;-79
2023/09/14 12:53:13;;;;;;;4.93;3.05;;;22.30;99.90;;;;;;4940756;29;20470;-79
2023/09/14 12:55:47;;;;;;;5.15;3.17;;;22.40;99.90;;;;;;4972787;28;20047;-79
2023/09/14 12:58:19;;;;;;;9.32;2.70;;;22.50;99.90;;;;;;4989209;28;20047;-79
2023/09/14 13:00:45;;;;;;;5.70;2.22;;;23.10;99.90;;;;;;4973484;28;20406;-79
2023/09/14 13:03:13;;;;;;;5.82;2.67;;;22.00;99.90;;;;;;4972342;28;20392;-79
2023/09/14 13:05:39;;;;;;;6.45;2.65;;;22.10;99.90;;;;;;4972596;28;20079;-79
2023/09/14 13:08:07;;;;;;;8.13;2.88;;;23.00;99.90;;;;;;4972358;28;20040;-79